createdAt,value
2023-01-19T02:23:51.461Z,25.00
2023-01-19T02:26:21.159Z,23.70
2023-01-19T02:29:09.915Z,27.60
2023-01-19T02:31:37.300Z,22.80
2023-01-19T02:34:04.404Z,20.90
2023-01-19T02:36:35.484Z,19.70
2023-01-19T02:39:02.419Z,18.90
2023-01-19T02:41:31.091Z,14.10
2023-01-19T02:43:57.968Z,17.60
2023-01-19T02:46:25.670Z,15.20
2023-01-19T02:48:52.611Z,14.50
2023-01-19T02:51:24.161Z,16.40
2023-01-19T02:54:07.241Z,16.60
2023-01-19T02:56:37.435Z,18.60
2023-01-19T02:59:13.281Z,19.40
2023-01-19T03:02:00.819Z,18.00
2023-01-19T03:04:42.539Z,17.10
2023-01-19T03:07:15.271Z,18.30
2023-01-19T03:09:48.986Z,18.70
2023-01-19T03:12:18.967Z,17.30
2023-01-19T03:14:46.641Z,19.30
2023-01-19T03:17:13.721Z,19.20
2023-01-19T03:19:41.360Z,17.40
2023-01-19T03:22:17.586Z,20.50
2023-01-19T03:24:45.315Z,15.70
2023-01-19T03:27:15.030Z,17.00
2023-01-19T03:29:43.177Z,15.40
2023-01-19T03:32:13.654Z,15.20
2023-01-19T03:34:40.750Z,15.10
2023-01-19T03:37:07.739Z,19.60
2023-01-19T03:39:34.702Z,18.20
2023-01-19T03:42:06.251Z,18.70
2023-01-19T03:44:36.026Z,20.10
2023-01-19T03:47:04.217Z,15.60
2023-01-19T03:49:31.666Z,16.50
2023-01-19T03:51:58.980Z,16.40
2023-01-19T03:54:26.709Z,17.90
2023-01-19T03:56:54.137Z,17.10
2023-01-19T03:59:21.864Z,17.00
2023-01-19T04:01:49.016Z,13.20
2023-01-19T04:04:16.101Z,20.90
2023-01-19T04:06:43.690Z,18.50
2023-01-19T04:09:11.661Z,14.70
2023-01-19T04:11:38.582Z,16.80
2023-01-19T04:14:05.513Z,16.80
2023-01-19T04:16:32.415Z,19.40
2023-01-19T04:18:59.435Z,21.00
2023-01-19T04:21:26.358Z,18.80
2023-01-19T04:23:54.032Z,20.20
2023-01-19T04:26:21.077Z,20.30
2023-01-19T04:28:47.967Z,22.70
2023-01-19T04:31:15.068Z,23.50
2023-01-19T04:33:43.231Z,22.30
2023-01-19T04:36:10.218Z,19.40
2023-01-19T04:38:37.214Z,23.30
2023-01-19T04:41:04.253Z,20.30
2023-01-19T04:43:31.145Z,19.10
2023-01-19T04:45:58.729Z,21.70
2023-01-19T04:48:25.716Z,18.90
2023-01-19T04:50:52.723Z,22.70
2023-01-19T04:53:19.674Z,17.60
2023-01-19T04:55:46.842Z,22.00
2023-01-19T04:58:13.999Z,20.90
2023-01-19T05:00:40.923Z,17.50
2023-01-19T05:03:07.845Z,18.30
2023-01-19T05:05:34.858Z,17.90
2023-01-19T05:08:01.814Z,16.20
2023-01-19T05:10:28.714Z,15.50
2023-01-19T05:12:55.709Z,17.60
2023-01-19T05:15:22.754Z,16.50
2023-01-19T05:17:49.737Z,14.40
2023-01-19T05:20:17.493Z,15.20
2023-01-19T05:22:51.859Z,14.00
2023-01-19T05:25:18.941Z,14.20
2023-01-19T05:27:45.927Z,16.40
2023-01-19T05:30:13.444Z,15.80
2023-01-19T05:32:40.384Z,18.60
2023-01-19T05:35:07.884Z,17.80
2023-01-19T05:37:34.782Z,17.60
2023-01-19T05:40:01.678Z,13.50
2023-01-19T05:42:28.936Z,13.30
2023-01-19T05:44:56.397Z,13.60
2023-01-19T05:47:23.305Z,13.70
2023-01-19T05:49:50.220Z,13.20
2023-01-19T05:52:18.169Z,16.50
2023-01-19T05:54:46.146Z,17.10
2023-01-19T05:57:13.053Z,11.70
2023-01-19T05:59:40.216Z,13.20
2023-01-19T06:02:07.292Z,15.90
2023-01-19T06:04:34.281Z,14.30
2023-01-19T06:07:02.317Z,13.00
2023-01-19T06:09:29.582Z,14.70
2023-01-19T06:11:57.776Z,16.30
2023-01-19T06:14:25.123Z,15.90
2023-01-19T06:16:52.343Z,15.40
2023-01-19T06:19:19.276Z,12.80
2023-01-19T06:21:49.810Z,12.30
2023-01-19T06:24:16.773Z,14.80
2023-01-19T06:26:44.001Z,14.50
2023-01-19T06:29:11.731Z,14.30
2023-01-19T06:31:38.675Z,17.50
2023-01-19T06:34:05.736Z,13.40
2023-01-19T06:36:33.915Z,15.10
2023-01-19T06:39:03.372Z,14.50
2023-01-19T06:41:30.275Z,16.60
2023-01-19T06:43:57.259Z,12.90
2023-01-19T06:46:24.204Z,12.90
2023-01-19T06:48:51.151Z,13.40
2023-01-19T06:51:18.061Z,13.60
2023-01-19T06:53:45.230Z,14.40
2023-01-19T06:56:12.185Z,14.60
2023-01-19T06:58:39.381Z,15.00
2023-01-19T07:01:07.113Z,13.20
2023-01-19T07:03:34.594Z,15.50
2023-01-19T07:06:06.645Z,14.00
2023-01-19T07:08:34.755Z,13.10
2023-01-19T07:11:22.193Z,19.30
2023-01-19T07:13:54.107Z,18.10
2023-01-19T07:16:21.096Z,16.70
2023-01-19T07:18:48.200Z,14.60
2023-01-19T07:21:15.433Z,16.30
2023-01-19T07:23:43.400Z,17.20
2023-01-19T07:26:10.572Z,19.00
2023-01-19T07:28:37.467Z,21.10
2023-01-19T07:31:04.840Z,24.00
2023-01-19T07:33:31.956Z,20.90
2023-01-19T07:35:58.939Z,26.00
2023-01-19T07:38:25.930Z,21.50
2023-01-19T07:40:52.959Z,20.20
2023-01-19T07:43:19.843Z,24.10
2023-01-19T07:45:47.089Z,27.00
2023-01-19T07:48:14.043Z,29.40
2023-01-19T07:50:41.020Z,23.10
2023-01-19T07:53:08.841Z,39.50
2023-01-19T07:55:35.917Z,36.40
2023-01-19T07:58:06.714Z,19.50
2023-01-19T08:00:35.322Z,29.20
2023-01-19T08:03:03.130Z,22.50
2023-01-19T08:05:31.370Z,35.10
2023-01-19T08:07:59.351Z,21.80
2023-01-19T08:10:27.134Z,18.80
2023-01-19T08:12:54.774Z,21.40
2023-01-19T08:15:24.051Z,20.00
2023-01-19T08:17:58.033Z,25.70
2023-01-19T08:20:25.295Z,14.70
2023-01-19T08:23:00.286Z,48.90
2023-01-19T08:25:32.576Z,21.20
2023-01-19T08:28:00.692Z,12.30
2023-01-19T08:30:27.778Z,19.50
2023-01-19T08:32:58.074Z,18.70
2023-01-19T08:35:25.373Z,19.30
2023-01-19T08:37:52.350Z,17.50
2023-01-19T08:40:19.816Z,10.20
2023-01-19T08:42:46.782Z,15.50
2023-01-19T08:45:13.868Z,14.80
2023-01-19T08:47:40.956Z,10.40
2023-01-19T08:50:08.645Z,17.70
2023-01-19T08:52:35.661Z,26.60
2023-01-19T08:55:02.658Z,23.90
2023-01-19T08:57:29.709Z,11.20
2023-01-19T08:59:56.643Z,18.10
2023-01-19T09:02:23.817Z,14.20
2023-01-19T09:04:51.825Z,10.50
2023-01-19T09:07:18.828Z,12.30
2023-01-19T09:09:45.771Z,10.80
2023-01-19T09:12:12.756Z,9.00
2023-01-19T09:14:39.719Z,8.60
2023-01-19T09:17:06.660Z,7.30
2023-01-19T09:19:35.063Z,7.70
2023-01-19T09:22:02.259Z,8.00
2023-01-19T09:24:29.183Z,6.90
2023-01-19T09:26:56.177Z,7.90
2023-01-19T09:29:23.123Z,8.70
2023-01-19T09:31:50.117Z,7.60
2023-01-19T09:34:17.399Z,7.60
2023-01-19T09:36:44.308Z,7.20
2023-01-19T09:39:11.275Z,6.80
2023-01-19T09:41:38.787Z,8.70
2023-01-19T09:44:05.944Z,7.90
2023-01-19T09:46:42.317Z,8.40
2023-01-19T09:49:17.215Z,5.60
2023-01-19T09:51:46.085Z,5.80
2023-01-19T09:54:39.332Z,8.10
2023-01-19T09:57:11.276Z,8.20
2023-01-19T09:59:39.001Z,6.90
2023-01-19T14:26:42.441Z,45.00
2023-01-19T14:29:17.080Z,37.60
2023-01-19T14:31:45.721Z,37.40
2023-01-19T14:34:34.209Z,28.60
2023-01-19T14:37:02.681Z,25.00
2023-01-19T14:39:34.947Z,33.10
2023-01-19T14:42:04.206Z,23.40
2023-01-19T14:44:33.961Z,32.20
2023-01-19T14:47:01.208Z,25.10
2023-01-19T14:49:35.549Z,28.40
2023-01-19T14:52:08.458Z,32.20
2023-01-19T14:54:39.008Z,27.80
2023-01-19T14:57:08.969Z,36.10
2023-01-19T14:59:36.071Z,26.90
2023-01-19T15:02:03.202Z,26.60
2023-01-19T15:04:30.230Z,28.10
2023-01-19T15:06:57.127Z,37.50
2023-01-19T15:09:24.427Z,27.60
2023-01-19T15:11:51.496Z,28.20
2023-01-19T15:14:19.031Z,32.70
2023-01-19T15:16:46.108Z,35.70
2023-01-19T15:19:14.085Z,33.40
2023-01-19T15:21:45.423Z,36.10
2023-01-19T15:24:13.274Z,27.60
2023-01-19T15:26:41.560Z,31.80
2023-01-19T15:29:26.349Z,29.20
2023-01-19T15:31:53.803Z,27.20
2023-01-19T15:34:20.840Z,34.00
2023-01-19T15:36:47.828Z,31.90
2023-01-19T15:39:14.862Z,30.70
2023-01-19T15:41:41.758Z,30.50
2023-01-19T15:44:10.809Z,31.60
2023-01-19T15:46:38.090Z,29.70
2023-01-19T15:49:05.805Z,26.30
2023-01-19T15:51:33.303Z,31.70
2023-01-19T15:54:00.399Z,32.50
2023-01-19T15:56:29.063Z,28.70
2023-01-19T15:58:56.437Z,32.00
2023-01-19T16:01:30.663Z,28.00
2023-01-19T16:03:59.721Z,32.10
2023-01-19T16:06:26.802Z,35.40
2023-01-19T16:08:59.155Z,34.30
2023-01-19T16:11:26.600Z,28.70
2023-01-19T16:13:53.660Z,30.90
2023-01-19T16:16:22.025Z,29.50
2023-01-19T16:18:49.166Z,28.70
2023-01-19T16:21:16.222Z,32.90
2023-01-19T16:23:43.165Z,28.60
2023-01-19T16:26:24.863Z,29.00
2023-01-19T16:28:51.893Z,32.70
2023-01-19T16:31:18.913Z,30.60
2023-01-19T16:33:46.040Z,32.20
2023-01-19T16:36:20.742Z,30.60
2023-01-19T16:38:47.814Z,27.80
2023-01-19T16:41:14.920Z,30.00
2023-01-19T16:43:41.903Z,30.50
2023-01-19T16:46:17.228Z,29.00
2023-01-19T16:48:44.245Z,31.00
2023-01-19T16:51:11.160Z,28.80
2023-01-19T16:53:39.786Z,28.60
2023-01-19T16:56:14.554Z,25.40
2023-01-19T16:58:42.068Z,30.60
2023-01-19T17:01:10.036Z,30.00
2023-01-19T17:03:38.665Z,33.30
2023-01-19T17:06:06.584Z,31.30
2023-01-19T17:08:34.398Z,32.30
2023-01-19T17:11:03.022Z,27.90
2023-01-19T17:13:30.641Z,30.40
2023-01-19T17:16:01.382Z,33.00
2023-01-19T17:18:30.549Z,28.20
2023-01-19T17:21:07.117Z,29.90
2023-01-19T17:23:36.572Z,26.60
2023-01-19T17:26:04.483Z,30.20
2023-01-19T17:28:31.427Z,30.00
2023-01-19T17:31:07.516Z,30.70
2023-01-19T17:33:34.668Z,37.60
2023-01-19T17:36:09.952Z,34.50
2023-01-19T17:38:37.148Z,34.50
2023-01-19T17:41:15.292Z,58.30
2023-01-19T17:43:42.413Z,34.20
2023-01-19T17:46:09.704Z,26.20
2023-01-19T17:48:36.789Z,28.20
2023-01-19T17:51:12.743Z,32.70
2023-01-19T17:53:40.713Z,36.40
2023-01-19T17:56:15.621Z,30.90
2023-01-19T20:08:21.544Z,45.30
2023-01-19T20:10:48.871Z,39.60
2023-01-19T20:13:19.176Z,30.40
2023-01-19T20:15:46.645Z,26.10
2023-01-19T20:18:14.033Z,28.60
2023-01-19T20:20:41.113Z,24.50
2023-01-19T20:23:08.224Z,36.60
2023-01-19T20:25:38.546Z,28.00
2023-01-19T20:28:05.816Z,26.00
2023-01-19T20:30:33.270Z,20.90
2023-01-19T20:33:00.426Z,29.70
2023-01-19T20:35:27.911Z,31.40
2023-01-19T20:37:54.944Z,25.40
2023-01-19T20:40:22.203Z,25.90
2023-01-19T20:42:53.105Z,24.70
2023-01-19T20:45:21.010Z,22.00
2023-01-19T20:47:48.133Z,24.60
2023-01-19T20:50:15.147Z,22.60
2023-01-19T20:52:42.186Z,30.80
2023-01-19T20:55:12.514Z,26.50
2023-01-19T20:57:39.764Z,23.00
2023-01-19T21:00:07.493Z,26.50
2023-01-19T21:02:34.759Z,24.10
2023-01-19T21:05:01.754Z,25.20
2023-01-19T21:07:28.878Z,25.60
2023-01-19T21:09:56.205Z,22.60
2023-01-19T21:12:23.545Z,36.90
2023-01-19T21:14:50.761Z,69.20
2023-01-19T21:17:17.794Z,32.20
2023-01-19T21:19:44.941Z,40.70
2023-01-19T21:22:12.226Z,58.10
2023-01-19T21:24:39.342Z,43.80
2023-01-19T21:27:06.215Z,52.10
2023-01-19T21:29:33.528Z,32.60
2023-01-19T21:32:01.126Z,33.40
2023-01-19T21:34:28.352Z,44.50
2023-01-19T21:36:55.395Z,35.10
2023-01-19T21:39:22.451Z,44.50
2023-01-19T21:41:49.653Z,28.80
2023-01-19T21:44:16.953Z,29.80
2023-01-19T21:46:44.277Z,28.70
2023-01-19T21:49:16.542Z,29.00
2023-01-19T21:51:44.001Z,25.00
2023-01-19T21:54:11.349Z,27.50
2023-01-19T21:56:38.712Z,27.90
2023-01-19T21:59:06.052Z,24.20
2023-01-19T22:01:33.734Z,27.00
2023-01-19T22:04:00.922Z,30.70
2023-01-19T22:06:28.225Z,29.60
2023-01-19T22:08:55.441Z,23.70
2023-01-19T22:11:23.413Z,28.20
2023-01-19T22:13:51.232Z,33.50
2023-01-19T22:16:19.765Z,28.90
2023-01-19T22:18:51.114Z,26.60
2023-01-19T22:21:23.084Z,25.80
2023-01-19T22:23:55.053Z,28.60
2023-01-19T22:26:22.180Z,30.00
2023-01-19T22:28:59.078Z,31.50
2023-01-19T22:31:26.877Z,29.60
2023-01-19T22:33:54.185Z,30.80
2023-01-19T22:36:29.031Z,26.00
2023-01-19T22:38:57.633Z,29.30
2023-01-19T22:41:27.603Z,29.40
2023-01-19T22:43:58.918Z,29.00
2023-01-19T22:46:27.835Z,28.80
2023-01-19T22:48:55.071Z,34.30
2023-01-19T22:51:22.473Z,28.40
2023-01-19T22:53:49.725Z,29.80
2023-01-19T22:56:18.236Z,29.10
2023-01-19T22:58:45.762Z,28.30
2023-01-19T23:01:17.665Z,29.10
2023-01-19T23:03:44.651Z,28.40
2023-01-19T23:06:13.779Z,28.50
2023-01-19T23:08:40.983Z,29.00
2023-01-19T23:11:15.980Z,27.10
2023-01-19T23:13:42.984Z,29.90
2023-01-19T23:16:10.202Z,23.50
2023-01-19T23:18:37.251Z,30.80
2023-01-19T23:21:07.699Z,33.70
2023-01-19T23:23:34.910Z,26.90
2023-01-19T23:26:03.780Z,28.30
2023-01-19T23:28:31.155Z,28.70
2023-01-19T23:30:58.211Z,28.70
2023-01-19T23:33:25.575Z,28.60
2023-01-19T23:35:55.102Z,29.10
2023-01-19T23:38:22.643Z,27.40
2023-01-19T23:40:49.957Z,30.50
2023-01-19T23:43:16.957Z,27.60
2023-01-19T23:45:44.076Z,26.60
2023-01-19T23:48:11.205Z,24.00
2023-01-19T23:50:40.796Z,28.00
2023-01-19T23:53:07.920Z,32.80
2023-01-19T23:55:35.175Z,30.70
2023-01-19T23:58:02.168Z,32.80
